Flight Track Log - Related Links

Times and Time Zones

All times are in EDT time to prevent confusion due to time zone crossing. See the OPT452 flight status page for this flight to view local times or setup timezone preferences in your user account.


Time Position Orientation Groundspeed Altitude Reporting Facility
EDT Latitude Longitude Course Direction KTS MPH feet Rate Location/Type
Wed 04:09:54 PM 30.3247 -81.8217 338° Northwest 251 289 2,400  Level Jacksonville Center
Wed 04:10:19 PM 30.3125 -81.8508 244° Southwest 252 290 3,000 1,694 Climbing Jacksonville Center
Wed 04:11:19 PM 30.2628 -81.9089 225° Southwest 270 311 4,800 1,900 Climbing Jacksonville Center
Wed 04:12:19 PM 30.2022 -81.9022 175° South 239 275 6,800 1,950 Climbing Jacksonville Center
Wed 04:13:19 PM 30.1475 -81.8547 143° Southeast 204 235 8,700 1,550 Climbing Jacksonville Center
Wed 04:14:19 PM 30.0906 -81.8050 143° Southeast 218 251 9,900 1,150 Climbing Jacksonville Center
Wed 04:15:19 PM 30.0297 -81.7506 142° Southeast 249 287 11,000 1,100 Climbing Jacksonville Center
Wed 04:16:19 PM 29.9539 -81.6844 143° Southeast 300 345 12,100 1,700 Climbing Jacksonville Center
Wed 04:17:19 PM 29.8739 -81.6136 142° Southeast 343 395 14,400 1,450 Climbing Jacksonville Center
Wed 04:18:19 PM 29.7958 -81.5450 143° Southeast 356 410 15,000 950 Climbing Jacksonville Center
Wed 04:19:19 PM 29.7117 -81.4697 142° Southeast 375 432 16,300 1,500 Climbing Jacksonville Center
Wed 04:20:19 PM 29.6314 -81.4017 144° Southeast 369 425 18,000 850 Climbing Jacksonville Center
Wed 04:21:19 PM 29.5472 -81.3289 143° Southeast 364 419 18,000  Level Jacksonville Center
Wed 04:22:19 PM 29.4583 -81.2517 143° Southeast 377 434 18,000  Level Jacksonville Center
Wed 04:23:19 PM 29.3678 -81.1769 144° Southeast 395 455 18,000 62 Level Jacksonville Center
Wed 04:25:32 PM 29.2208 -80.9458 126° Southeast 402 463 18,200 715 Climbing Miami Center
Wed 04:26:32 PM 29.1547 -80.8533 129° Southeast 395 455 20,300 2,050 Climbing Miami Center
Wed 04:27:32 PM 29.0642 -80.8072 156° South 364 419 22,300 2,050 Climbing Miami Center
Wed 04:28:32 PM 28.9672 -80.7728 163° South 354 407 24,400 1,850 Climbing Miami Center
Wed 04:29:32 PM 28.8867 -80.7417 161° South 354 407 26,000 500 Climbing Miami Center
Wed 04:30:32 PM 28.7708 -80.7019 163° South 376 433 25,400 -1,000 Descending Miami Center
Wed 04:31:32 PM 28.6575 -80.6483 157° South 419 482 24,000 -750 Descending Miami Center
Wed 04:32:32 PM 28.5531 -80.5739 148° Southeast 435 501 23,900 -850 Descending Miami Center
Wed 04:33:32 PM 28.4631 -80.5050 146° Southeast 442 509 22,300 -1,650 Descending Miami Center
Wed 04:34:32 PM 28.3522 -80.4258 148° Southeast 436 502 20,600 -1,650 Descending Miami Center
Wed 04:35:32 PM 28.2517 -80.3567 149° Southeast 430 495 19,000 -1,450 Descending Miami Center
Wed 04:36:32 PM 28.1678 -80.2953 147° Southeast 420 483 17,700 -1,450 Descending Miami Center
Wed 04:37:32 PM 28.0814 -80.2361 149° Southeast 396 456 16,100 -1,600 Descending Miami Center
Wed 04:38:32 PM 27.9908 -80.1886 155° Southeast 369 425 14,500 -1,500 Descending Miami Center
Wed 04:39:32 PM 27.8928 -80.1836 177° South 350 403 13,100 -1,150 Descending Miami Center
Wed 04:40:32 PM 27.7886 -80.1733 175° South 350 403 12,200 -850 Descending Miami Center
Wed 04:41:32 PM 27.6947 -80.1661 176° South 350 403 11,400 -800 Descending Miami Center
Wed 04:42:32 PM 27.6114 -80.1589 176° South 344 396 10,600 -700 Descending Miami Center
Wed 04:43:32 PM 27.5197 -80.1539 177° South 339 390 10,000 -300 Descending Miami Center
Wed 04:44:32 PM 27.4239 -80.1442 175° South 324 373 10,000  Level Miami Center
Wed 04:45:32 PM 27.3425 -80.1394 177° South 305 351 10,000 -50 Level Miami Center
Wed 04:46:32 PM 27.2675 -80.1303 174° South 288 331 9,900 -700 Descending Miami Center
Wed 04:47:32 PM 27.1994 -80.1028 160° South 288 331 8,600 -1,400 Descending Miami Center
Wed 04:48:32 PM 27.1292 -80.0706 158° South 282 325 7,100 -1,600 Descending Miami Center
Wed 04:49:32 PM 27.0506 -80.0308 156° South 282 325 5,400 -1,050 Descending Miami Center
Wed 04:50:32 PM 26.9844 -79.9967 155° Southeast 276 318 5,000 -200 Descending Miami Center
Wed 04:51:32 PM 26.9131 -80.0156 193° South 246 283 5,000  Level Miami Center
Wed 04:52:32 PM 26.8578 -80.0631 217° Southwest 273 314 5,000  Level Miami Center
Wed 04:54:00 PM 26.7288 -80.0886 193° South  Level FlightAware Approximate
Wed 05:01:00 PM 26.3785 -80.1077 180° South  Level Estimated
Wed 05:02:00 PM 26.3785 -80.1077 180° South  Level Estimated
Wed 05:03:00 PM 26.3785 -80.1077 180° South  Level Estimated
Wed 05:04:00 PM 26.3785 -80.1077 180° South  Level Estimated

Login

Don't have an account? Register now (free) for customized features, flight alerts, and more!